Time;durP1;ratioP1;P1;durP2;ratioP2;P2;SDS_P1;SDS_P2;PMS_P1;PMS_P2;Temp;Humidity;BMP_temperature;BMP_pressure;BME280_temperature;BME280_humidity;BME280_pressure;Samples;Min_cycle;Max_cycle;Signal;HPM_P1;HPM_P2
2022/06/27 00:01:56;;;;;;;8.40;5.88;;;20.30;71.70;;;;;;9183755;19;20665;-70
2022/06/27 00:05:04;;;;;;;9.85;5.90;;;20.30;71.70;;;;;;9180931;19;20019;-70
2022/06/27 00:08:10;;;;;;;8.27;5.50;;;20.20;71.80;;;;;;9185299;19;20099;-70
2022/06/27 00:11:15;;;;;;;12.20;5.82;;;20.20;71.80;;;;;;9181585;19;20021;-72
2022/06/27 00:14:20;;;;;;;9.32;5.50;;;20.20;71.90;;;;;;9186759;19;20015;-71
2022/06/27 00:17:27;;;;;;;10.77;5.90;;;20.10;72.00;;;;;;9186595;19;20476;-71
2022/06/27 00:20:35;;;;;;;11.60;6.00;;;20.10;72.10;;;;;;9182767;19;20018;-70
2022/06/27 00:23:40;;;;;;;11.45;6.38;;;20.10;72.30;;;;;;9185325;19;20021;-70
2022/06/27 00:26:45;;;;;;;8.35;6.25;;;20.10;72.30;;;;;;9183486;19;20014;-71
2022/06/27 00:29:51;;;;;;;11.88;6.25;;;20.10;72.40;;;;;;9185128;19;20019;-72
2022/06/27 00:32:56;;;;;;;11.40;7.07;;;20.00;72.40;;;;;;9186034;19;20026;-72
2022/06/27 00:36:03;;;;;;;11.15;6.57;;;20.00;72.60;;;;;;9185152;19;20018;-70
2022/06/27 00:39:09;;;;;;;12.20;6.18;;;20.00;72.70;;;;;;9184144;19;20086;-70
2022/06/27 00:42:14;;;;;;;9.27;6.22;;;20.00;72.70;;;;;;9180831;19;20015;-72
2022/06/27 00:45:19;;;;;;;12.05;6.80;;;20.00;72.80;;;;;;9183888;19;20022;-71
2022/06/27 00:48:24;;;;;;;14.07;6.90;;;20.00;73.10;;;;;;9182928;19;20019;-71
2022/06/27 00:51:32;;;;;;;12.43;6.72;;;20.00;73.10;;;;;;9183376;19;20042;-70
2022/06/27 00:54:38;;;;;;;8.10;6.82;;;20.00;73.30;;;;;;9183093;19;20026;-70
2022/06/27 00:57:44;;;;;;;11.05;7.05;;;20.00;73.30;;;;;;9184872;19;20660;-69
2022/06/27 01:00:49;;;;;;;8.63;6.88;;;20.00;73.40;;;;;;9182633;19;20014;-69
2022/06/27 01:04:00;;;;;;;11.07;7.25;;;20.00;73.40;;;;;;9181713;19;20014;-70
2022/06/27 01:07:10;;;;;;;10.30;7.15;;;20.00;73.50;;;;;;9182596;19;20357;-70
2022/06/27 01:10:18;;;;;;;8.68;6.60;;;19.90;73.90;;;;;;9182911;19;20037;-72
2022/06/27 01:13:23;;;;;;;11.02;7.50;;;19.90;73.50;;;;;;9178958;19;20014;-70
2022/06/27 01:16:30;;;;;;;14.30;7.45;;;19.90;73.70;;;;;;9184674;19;20010;-72
2022/06/27 01:19:39;;;;;;;12.38;7.35;;;19.90;73.80;;;;;;9181346;19;20015;-72
2022/06/27 01:22:48;;;;;;;11.63;6.90;;;19.90;73.90;;;;;;9180701;19;20021;-71
2022/06/27 01:25:54;;;;;;;13.85;7.32;;;19.90;74.10;;;;;;9184312;19;20463;-71
2022/06/27 01:29:00;;;;;;;12.57;6.53;;;19.90;74.00;;;;;;9182381;19;20074;-70
2022/06/27 01:32:06;;;;;;;11.23;7.03;;;19.90;74.10;;;;;;9181304;19;20025;-70
2022/06/27 01:35:11;;;;;;;15.75;7.68;;;19.90;74.20;;;;;;9181466;19;20555;-70
2022/06/27 01:38:22;;;;;;;11.07;7.65;;;19.90;74.20;;;;;;9180421;19;20033;-70
2022/06/27 01:41:29;;;;;;;10.70;6.88;;;19.90;74.40;;;;;;9180202;19;20014;-70
2022/06/27 01:44:35;;;;;;;11.88;7.20;;;19.90;74.30;;;;;;9180730;19;20467;-70
2022/06/27 01:47:40;;;;;;;11.52;7.05;;;19.80;74.40;;;;;;9180942;19;20015;-70
2022/06/27 01:50:52;;;;;;;12.93;7.80;;;19.80;74.40;;;;;;9180800;19;20014;-71
2022/06/27 01:54:00;;;;;;;14.85;7.53;;;19.80;74.60;;;;;;9181226;19;20071;-73
2022/06/27 01:57:07;;;;;;;9.48;7.03;;;19.80;74.60;;;;;;9181436;19;20048;-70
2022/06/27 02:00:14;;;;;;;14.82;6.38;;;19.80;74.60;;;;;;9180052;19;20063;-70
2022/06/27 02:03:34;;;;;;;12.02;6.30;;;19.80;74.70;;;;;;9180623;19;20022;-70
2022/06/27 02:06:40;;;;;;;11.02;6.57;;;19.80;74.70;;;;;;9182441;19;20018;-71
2022/06/27 02:09:50;;;;;;;14.30;6.85;;;19.70;74.80;;;;;;9180615;19;20022;-69
2022/06/27 02:12:58;;;;;;;9.00;6.45;;;19.80;74.90;;;;;;9176526;19;20017;-70
2022/06/27 02:16:09;;;;;;;8.00;6.32;;;19.70;74.80;;;;;;9179092;19;20023;-70
2022/06/27 02:19:17;;;;;;;10.40;7.07;;;19.70;75.00;;;;;;9180311;19;20018;-71
2022/06/27 02:22:22;;;;;;;11.40;6.63;;;19.70;74.90;;;;;;9180334;19;20013;-71
2022/06/27 02:25:30;;;;;;;11.57;6.35;;;19.70;75.00;;;;;;9179539;19;20015;-72
2022/06/27 02:28:36;;;;;;;9.77;6.60;;;19.70;75.10;;;;;;9180501;19;20010;-71
2022/06/27 02:31:48;;;;;;;14.90;6.75;;;19.70;75.10;;;;;;9182352;19;20420;-73
2022/06/27 02:34:54;;;;;;;14.30;7.05;;;19.70;75.30;;;;;;9178811;19;20023;-70
2022/06/27 02:37:59;;;;;;;13.23;7.10;;;19.60;75.20;;;;;;9180380;19;20018;-71
2022/06/27 02:41:09;;;;;;;12.13;7.63;;;19.60;75.80;;;;;;9180396;19;20022;-71
2022/06/27 02:44:16;;;;;;;12.25;6.93;;;19.60;75.50;;;;;;9179124;19;20011;-70
2022/06/27 02:47:23;;;;;;;11.07;7.07;;;19.60;75.40;;;;;;9178717;19;20909;-70
2022/06/27 02:50:29;;;;;;;10.57;7.78;;;19.60;75.40;;;;;;9179123;19;20019;-70
2022/06/27 02:53:38;;;;;;;8.60;7.18;;;19.50;75.40;;;;;;9177809;19;20017;-71
2022/06/27 02:57:10;;;;;;;8.95;7.20;;;19.50;75.50;;;;;;9178922;19;20010;-72
2022/06/27 03:00:17;;;;;;;12.52;8.55;;;19.50;75.60;;;;;;9179158;19;20011;-70
2022/06/27 03:03:26;;;;;;;10.25;7.32;;;19.40;75.40;;;;;;9176940;19;20515;-71
2022/06/27 03:06:31;;;;;;;12.38;7.97;;;19.40;75.60;;;;;;9178958;19;20014;-72
2022/06/27 03:09:37;;;;;;;11.10;8.02;;;19.40;75.70;;;;;;9179087;19;20482;-70
2022/06/27 03:12:44;;;;;;;11.63;8.63;;;19.40;75.80;;;;;;9179911;19;20010;-70
2022/06/27 03:15:50;;;;;;;13.48;8.10;;;19.40;75.90;;;;;;9187056;19;20081;-70
2022/06/27 03:18:55;;;;;;;16.02;8.18;;;19.30;75.80;;;;;;9187272;19;20019;-71
2022/06/27 03:22:19;;;;;;;10.63;8.35;;;19.30;75.90;;;;;;9185198;19;20147;-70
2022/06/27 03:25:24;;;;;;;12.32;8.77;;;19.30;76.00;;;;;;9186615;19;20014;-69
2022/06/27 03:28:32;;;;;;;13.40;8.15;;;19.30;76.00;;;;;;9186735;19;20081;-69
2022/06/27 03:31:39;;;;;;;12.25;7.53;;;19.30;76.20;;;;;;9185186;19;20022;-69
2022/06/27 03:34:47;;;;;;;12.90;7.70;;;19.20;76.10;;;;;;9186701;19;20025;-69
2022/06/27 03:37:56;;;;;;;10.38;7.43;;;19.20;76.20;;;;;;9187017;19;20011;-70
2022/06/27 03:41:02;;;;;;;10.63;8.40;;;19.20;76.20;;;;;;9185988;19;20018;-70
2022/06/27 03:44:11;;;;;;;11.35;9.13;;;19.10;76.30;;;;;;9187438;19;20026;-69
2022/06/27 03:47:23;;;;;;;13.98;9.10;;;19.10;76.40;;;;;;9185880;19;20029;-70
2022/06/27 03:50:44;;;;;;;11.50;8.60;;;19.10;76.40;;;;;;9185939;19;20019;-69
2022/06/27 03:53:49;;;;;;;10.68;7.95;;;19.00;76.30;;;;;;9185548;19;20026;-69
2022/06/27 03:56:57;;;;;;;15.80;9.45;;;19.10;76.50;;;;;;9185943;19;20029;-71
2022/06/27 04:00:08;;;;;;;14.48;8.85;;;19.00;76.50;;;;;;9185875;19;20014;-72
2022/06/27 04:03:17;;;;;;;16.60;8.20;;;19.00;76.70;;;;;;9183552;19;20014;-69
2022/06/27 04:06:32;;;;;;;13.15;7.85;;;18.90;76.60;;;;;;9186894;19;20026;-70
2022/06/27 04:09:37;;;;;;;12.40;8.13;;;18.90;76.60;;;;;;9185822;19;20091;-70
2022/06/27 04:12:43;;;;;;;9.82;7.43;;;18.90;76.60;;;;;;9182165;19;20011;-70
2022/06/27 04:16:10;;;;;;;10.75;7.53;;;18.90;76.70;;;;;;9184851;19;20014;-71
2022/06/27 04:19:33;;;;;;;12.25;7.35;;;18.80;76.60;;;;;;9184936;19;20023;-72
2022/06/27 04:22:41;;;;;;;9.98;6.97;;;18.70;76.50;;;;;;9179950;19;20394;-70
2022/06/27 04:26:05;;;;;;;11.43;7.10;;;18.70;76.70;;;;;;9184133;19;20454;-69
2022/06/27 04:29:11;;;;;;;11.02;7.30;;;18.70;76.70;;;;;;9184228;19;20017;-71
2022/06/27 04:32:19;;;;;;;11.65;7.30;;;18.70;76.80;;;;;;9184358;19;20041;-69
2022/06/27 04:35:24;;;;;;;13.18;7.82;;;18.60;76.90;;;;;;9183776;19;20018;-70
2022/06/27 04:38:31;;;;;;;9.35;6.93;;;18.60;76.90;;;;;;9184616;19;20046;-70
2022/06/27 04:41:54;;;;;;;12.05;7.18;;;18.60;76.90;;;;;;9184096;19;20025;-70
2022/06/27 04:45:00;;;;;;;9.18;7.15;;;18.50;76.90;;;;;;9184990;19;20015;-70
2022/06/27 04:48:10;;;;;;;9.25;7.30;;;18.50;77.00;;;;;;9183549;19;20367;-70
2022/06/27 04:51:16;;;;;;;10.73;6.80;;;18.50;77.10;;;;;;9183262;19;20021;-70
2022/06/27 04:54:22;;;;;;;14.70;7.07;;;18.50;77.10;;;;;;9182928;19;20065;-70
2022/06/27 04:57:27;;;;;;;10.77;7.32;;;18.40;77.10;;;;;;9183484;19;20029;-72
2022/06/27 05:00:32;;;;;;;13.07;7.28;;;18.40;77.30;;;;;;9184891;19;20464;-72
2022/06/27 05:03:39;;;;;;;9.50;7.10;;;18.40;77.40;;;;;;9181966;19;20791;-71
2022/06/27 05:06:55;;;;;;;9.68;6.95;;;18.40;77.40;;;;;;9183359;19;20003;-70
2022/06/27 05:10:01;;;;;;;7.90;6.63;;;18.40;77.40;;;;;;9183511;19;20010;-70
2022/06/27 05:13:07;;;;;;;8.75;6.82;;;18.40;77.50;;;;;;9178827;19;20010;-70
2022/06/27 05:16:12;;;;;;;11.57;6.05;;;18.30;77.50;;;;;;9182202;19;20051;-70
2022/06/27 05:19:21;;;;;;;7.95;6.15;;;18.40;77.60;;;;;;9181137;19;20356;-71
2022/06/27 05:22:27;;;;;;;7.40;6.05;;;18.40;77.70;;;;;;9180859;19;20024;-71
2022/06/27 05:25:32;;;;;;;8.73;6.43;;;18.40;77.70;;;;;;9174852;19;20011;-70
2022/06/27 05:28:38;;;;;;;9.10;5.88;;;18.30;77.70;;;;;;9181487;19;20011;-70
2022/06/27 05:31:45;;;;;;;8.18;5.68;;;18.40;77.80;;;;;;9183532;19;20018;-71
2022/06/27 05:34:53;;;;;;;8.07;5.57;;;18.30;77.80;;;;;;9180308;19;20014;-71
2022/06/27 05:37:59;;;;;;;7.97;5.43;;;18.30;77.90;;;;;;9182140;19;20014;-70
2022/06/27 05:41:05;;;;;;;7.25;4.82;;;18.40;77.90;;;;;;9181990;19;20010;-72
2022/06/27 05:44:10;;;;;;;7.90;5.15;;;18.40;77.90;;;;;;9179884;19;20022;-69
2022/06/27 05:47:16;;;;;;;7.63;4.68;;;18.40;77.90;;;;;;9181306;19;20010;-71
2022/06/27 05:50:44;;;;;;;6.13;5.03;;;18.40;78.00;;;;;;9181434;19;20366;-73
2022/06/27 05:53:50;;;;;;;8.13;5.28;;;18.30;78.00;;;;;;9180356;19;20471;-69
2022/06/27 05:56:56;;;;;;;10.23;5.82;;;18.40;78.00;;;;;;9181531;19;20018;-71
2022/06/27 06:00:02;;;;;;;9.00;5.80;;;18.40;78.10;;;;;;9180090;19;20416;-69
2022/06/27 06:03:17;;;;;;;10.65;5.18;;;18.40;78.10;;;;;;9180778;19;20653;-69
2022/06/27 06:06:28;;;;;;;7.97;5.18;;;18.40;78.10;;;;;;9179766;19;20010;-70
2022/06/27 06:09:34;;;;;;;9.38;5.88;;;18.40;78.20;;;;;;9180428;19;20039;-70
2022/06/27 06:12:40;;;;;;;11.13;6.85;;;18.40;78.20;;;;;;9174628;19;20014;-70
2022/06/27 06:15:45;;;;;;;11.57;6.65;;;18.40;78.20;;;;;;9171968;19;20056;-71
2022/06/27 06:18:53;;;;;;;10.93;6.55;;;18.40;78.20;;;;;;9171934;19;20085;-70
2022/06/27 06:22:00;;;;;;;6.97;5.55;;;18.40;78.30;;;;;;9173452;19;20085;-70
2022/06/27 06:25:07;;;;;;;10.45;5.80;;;18.40;78.30;;;;;;9172936;19;20022;-70
2022/06/27 06:28:12;;;;;;;9.32;5.88;;;18.30;78.20;;;;;;9172153;19;20018;-70
2022/06/27 06:31:21;;;;;;;7.95;5.28;;;18.30;78.30;;;;;;9176264;19;20017;-75
2022/06/27 06:34:36;;;;;;;7.78;4.93;;;18.30;78.40;;;;;;9176996;19;20015;-74
2022/06/27 06:37:45;;;;;;;10.10;4.60;;;18.40;78.60;;;;;;9178470;19;20011;-74
2022/06/27 06:40:50;;;;;;;8.10;5.15;;;18.30;78.50;;;;;;9179719;19;20600;-75
2022/06/27 06:43:59;;;;;;;7.60;4.47;;;18.30;79.10;;;;;;9171598;19;20022;-76
2022/06/27 06:47:30;;;;;;;5.82;4.60;;;18.30;78.60;;;;;;9187128;19;20010;-74
2022/06/27 06:50:43;;;;;;;;;;;18.40;78.60;;;;;;9189810;19;20021;-75
2022/06/27 06:53:51;;;;;;;5.55;4.82;;;18.40;78.40;;;;;;9188571;19;19926;-73
2022/06/27 06:56:57;;;;;;;7.15;4.95;;;18.40;78.50;;;;;;9188568;19;20017;-73
2022/06/27 07:00:12;;;;;;;7.47;4.88;;;18.40;78.70;;;;;;9187515;19;20043;-73
2022/06/27 07:03:17;;;;;;;9.20;4.82;;;18.40;78.80;;;;;;9188207;19;20040;-74
2022/06/27 07:06:26;;;;;;;5.85;4.75;;;18.40;78.80;;;;;;9186892;19;20014;-75
2022/06/27 07:09:34;;;;;;;11.48;4.53;;;18.50;78.90;;;;;;9189854;19;20015;-74
2022/06/27 07:12:40;;;;;;;5.57;3.90;;;18.50;79.00;;;;;;9182686;19;20024;-75
2022/06/27 07:15:45;;;;;;;7.45;3.97;;;18.50;79.00;;;;;;9185648;19;20029;-77
2022/06/27 07:18:54;;;;;;;5.35;3.90;;;18.50;78.90;;;;;;9188940;19;20018;-75
2022/06/27 07:22:01;;;;;;;4.35;3.75;;;18.60;79.00;;;;;;9188184;19;20014;-76
2022/06/27 07:25:12;;;;;;;6.10;3.67;;;18.60;79.10;;;;;;9185382;19;20340;-75
2022/06/27 07:28:20;;;;;;;10.15;4.75;;;18.60;79.20;;;;;;9186981;19;20018;-73
2022/06/27 07:31:25;;;;;;;6.10;4.18;;;18.60;79.10;;;;;;9182787;19;20023;-73
2022/06/27 07:34:30;;;;;;;4.75;4.20;;;18.60;79.20;;;;;;9184949;19;20014;-73
2022/06/27 07:37:36;;;;;;;7.20;4.57;;;18.70;79.30;;;;;;9186061;19;20025;-73
2022/06/27 07:40:44;;;;;;;6.18;4.00;;;18.70;79.30;;;;;;9186137;19;20369;-74
2022/06/27 07:43:49;;;;;;;6.38;4.80;;;18.70;79.40;;;;;;9184756;19;20021;-73
2022/06/27 07:46:56;;;;;;;5.22;4.30;;;18.80;79.40;;;;;;9185383;19;20368;-73
2022/06/27 07:50:01;;;;;;;6.38;4.40;;;18.80;79.30;;;;;;9187039;19;20025;-74
2022/06/27 07:53:18;;;;;;;4.35;3.88;;;18.80;79.30;;;;;;9184364;19;20019;-71
2022/06/27 07:56:26;;;;;;;7.57;3.85;;;18.80;79.20;;;;;;9179940;19;20061;-74
2022/06/27 07:59:54;;;;;;;4.15;3.70;;;18.80;79.10;;;;;;9180097;19;20432;-77
2022/06/27 08:02:59;;;;;;;6.78;3.95;;;18.80;79.00;;;;;;9179765;19;20019;-75
2022/06/27 08:06:10;;;;;;;6.38;4.40;;;18.80;79.00;;;;;;9179462;19;20042;-74
2022/06/27 08:09:16;;;;;;;6.80;4.30;;;18.90;79.10;;;;;;9181586;19;20027;-74
2022/06/27 08:12:26;;;;;;;8.13;4.28;;;18.90;79.00;;;;;;9175290;19;20037;-75
2022/06/27 08:15:32;;;;;;;6.78;4.40;;;18.90;79.10;;;;;;9184744;19;20051;-73
2022/06/27 08:18:39;;;;;;;6.20;4.38;;;18.90;79.00;;;;;;9185293;19;20074;-72
2022/06/27 08:21:45;;;;;;;4.97;3.95;;;18.80;78.90;;;;;;9187410;19;20011;-72
2022/06/27 08:24:49;;;;;;;6.05;4.15;;;18.90;79.10;;;;;;9185081;19;20045;-73
2022/06/27 08:27:58;;;;;;;6.60;4.55;;;18.90;79.10;;;;;;9185158;19;20022;-74
2022/06/27 08:31:03;;;;;;;7.35;4.25;;;18.90;79.20;;;;;;9184539;19;20013;-74
2022/06/27 08:34:08;;;;;;;5.97;4.35;;;18.90;79.20;;;;;;9184623;19;20348;-76
2022/06/27 08:37:14;;;;;;;5.00;3.88;;;18.90;79.10;;;;;;9183547;19;20114;-74
2022/06/27 08:40:20;;;;;;;7.03;4.35;;;18.90;79.10;;;;;;9181775;19;20023;-72
2022/06/27 08:43:29;;;;;;;9.88;4.22;;;19.00;79.10;;;;;;9181366;19;20011;-74
2022/06/27 08:46:35;;;;;;;6.32;4.70;;;19.00;79.10;;;;;;9180534;19;20019;-75
2022/06/27 08:49:41;;;;;;;6.68;4.25;;;19.10;79.10;;;;;;9179675;19;20048;-74
2022/06/27 08:52:47;;;;;;;7.07;4.50;;;19.10;79.10;;;;;;9179760;19;20018;-74
2022/06/27 08:55:52;;;;;;;6.82;4.55;;;19.10;79.10;;;;;;9178316;19;20106;-76
2022/06/27 08:59:00;;;;;;;8.40;5.07;;;19.10;79.10;;;;;;9179207;19;20082;-76
2022/06/27 09:02:12;;;;;;;7.00;4.82;;;19.10;79.20;;;;;;9175893;19;20014;-75
2022/06/27 09:05:26;;;;;;;6.50;4.90;;;19.10;79.20;;;;;;9173012;19;20011;-74
2022/06/27 09:08:36;;;;;;;8.68;4.10;;;19.20;79.20;;;;;;9172312;19;20013;-74
2022/06/27 09:11:43;;;;;;;6.75;4.53;;;19.20;79.20;;;;;;9175133;19;20018;-76
2022/06/27 09:14:51;;;;;;;5.22;4.03;;;19.20;79.20;;;;;;9176118;19;20019;-73
2022/06/27 09:18:06;;;;;;;5.22;4.28;;;19.20;79.30;;;;;;9172318;19;20019;-75
2022/06/27 09:21:15;;;;;;;7.55;4.90;;;19.20;79.40;;;;;;9177878;19;20020;-76
2022/06/27 09:24:23;;;;;;;6.25;4.28;;;19.20;79.20;;;;;;9174735;19;20447;-76
2022/06/27 09:27:44;;;;;;;6.07;4.47;;;19.20;79.30;;;;;;9178635;19;20014;-76
2022/06/27 09:30:52;;;;;;;13.52;8.35;;;19.20;79.40;;;;;;9179262;19;20387;-74
2022/06/27 09:34:05;;;;;;;7.00;5.13;;;19.30;79.40;;;;;;9178973;19;20014;-74
2022/06/27 09:37:16;;;;;;;7.45;5.28;;;19.30;79.50;;;;;;9176449;19;20018;-73
2022/06/27 09:40:25;;;;;;;6.75;4.97;;;19.30;79.40;;;;;;9177177;19;20089;-76
2022/06/27 09:43:35;;;;;;;7.47;4.57;;;19.30;79.40;;;;;;9179109;19;20380;-74
2022/06/27 09:46:46;;;;;;;9.43;5.13;;;19.30;79.40;;;;;;9173764;19;20034;-72
2022/06/27 09:49:56;;;;;;;7.05;4.45;;;19.30;79.50;;;;;;9175217;19;20022;-73
2022/06/27 09:53:02;;;;;;;15.10;4.82;;;19.40;79.50;;;;;;9174922;19;20467;-73
2022/06/27 09:56:09;;;;;;;6.45;4.78;;;19.40;79.30;;;;;;9177755;19;20077;-75
2022/06/27 09:59:15;;;;;;;5.40;4.53;;;19.40;79.30;;;;;;9174441;19;20018;-73
2022/06/27 10:02:23;;;;;;;6.43;4.97;;;19.40;79.20;;;;;;9174995;19;20360;-75
2022/06/27 10:05:29;;;;;;;7.65;4.43;;;19.50;79.30;;;;;;9175779;19;20049;-74
2022/06/27 10:08:36;;;;;;;8.35;5.95;;;19.50;79.20;;;;;;9179413;19;20040;-75
2022/06/27 10:11:41;;;;;;;10.32;5.35;;;19.50;79.10;;;;;;9181265;19;20494;-76
2022/06/27 10:14:46;;;;;;;5.97;4.97;;;19.50;79.20;;;;;;9181701;19;20015;-77
2022/06/27 10:17:56;;;;;;;6.32;4.65;;;19.60;79.10;;;;;;9175844;19;20048;-76
2022/06/27 10:21:27;;;;;;;12.25;5.32;;;19.60;79.10;;;;;;9176460;19;20010;-77
2022/06/27 10:24:36;;;;;;;5.75;4.90;;;19.70;79.10;;;;;;9179766;19;20026;-76
2022/06/27 10:27:41;;;;;;;7.18;4.90;;;19.70;78.90;;;;;;9178215;19;20025;-77
2022/06/27 10:30:48;;;;;;;7.75;5.07;;;19.70;78.90;;;;;;9180029;19;20094;-76
2022/06/27 10:33:55;;;;;;;6.15;3.75;;;19.90;78.90;;;;;;9179291;19;20534;-73
2022/06/27 10:37:35;;;;;;;6.32;4.00;;;19.90;78.80;;;;;;9175032;19;20018;-76
2022/06/27 10:40:50;;;;;;;4.95;3.78;;;20.00;78.80;;;;;;9173721;19;20014;-71
2022/06/27 10:43:57;;;;;;;6.93;4.50;;;20.00;78.60;;;;;;9177802;19;20027;-73
2022/06/27 10:47:02;;;;;;;5.03;3.47;;;20.10;78.60;;;;;;9174340;19;20458;-74
2022/06/27 10:50:17;;;;;;;4.18;3.50;;;20.20;78.50;;;;;;9177726;19;20721;-74
2022/06/27 10:53:25;;;;;;;3.85;3.08;;;20.20;78.20;;;;;;9177445;19;20015;-74
2022/06/27 10:56:37;;;;;;;4.93;3.50;;;20.30;78.10;;;;;;9176720;19;20018;-73
2022/06/27 11:00:04;;;;;;;3.67;3.22;;;20.30;78.00;;;;;;9178299;19;20018;-74
2022/06/27 11:03:11;;;;;;;5.13;3.97;;;20.40;78.00;;;;;;9175474;19;20015;-73
2022/06/27 11:06:19;;;;;;;5.43;4.40;;;20.40;77.90;;;;;;9173774;19;20099;-73
2022/06/27 11:09:36;;;;;;;6.05;4.63;;;20.50;77.90;;;;;;9175871;19;20022;-72
2022/06/27 11:12:41;;;;;;;6.32;4.85;;;20.50;77.90;;;;;;9177544;19;20495;-72
2022/06/27 11:15:53;;;;;;;6.95;4.95;;;20.50;77.80;;;;;;9175717;19;20034;-70
2022/06/27 11:19:00;;;;;;;4.85;4.00;;;20.60;77.80;;;;;;9170849;19;20030;-71
2022/06/27 11:22:21;;;;;;;5.88;4.22;;;20.60;77.70;;;;;;9177211;19;20333;-72
2022/06/27 11:25:27;;;;;;;4.50;3.97;;;20.60;77.70;;;;;;9177217;19;20026;-75
2022/06/27 11:32:04;;;;;;;7.10;4.40;;;20.70;77.60;;;;;;9173741;19;20042;-72
2022/06/27 11:35:15;;;;;;;10.45;5.35;;;20.80;77.60;;;;;;9177144;19;20020;-71
2022/06/27 11:38:33;;;;;;;6.47;4.95;;;20.80;77.50;;;;;;9178184;19;20021;-70
2022/06/27 11:41:41;;;;;;;12.05;4.53;;;20.80;77.50;;;;;;9176550;19;20022;-71
2022/06/27 11:45:06;;;;;;;7.78;5.00;;;20.80;77.40;;;;;;9179695;19;20018;-71
2022/06/27 11:48:16;;;;;;;5.38;4.30;;;20.80;77.40;;;;;;9181168;19;20022;-68
2022/06/27 11:51:29;;;;;;;7.68;4.45;;;20.80;77.30;;;;;;9180585;19;20851;-70
2022/06/27 11:54:45;;;;;;;8.48;5.07;;;20.90;77.40;;;;;;9177938;19;20026;-71
2022/06/27 11:57:52;;;;;;;7.28;5.38;;;20.90;77.40;;;;;;9176582;19;20363;-71
2022/06/27 12:00:57;;;;;;;7.25;5.35;;;20.90;77.30;;;;;;9178927;19;20006;-71
2022/06/27 12:04:17;;;;;;;8.57;5.53;;;20.90;77.30;;;;;;9176010;19;20038;-70
2022/06/27 12:07:22;;;;;;;8.82;4.70;;;20.90;77.30;;;;;;9173971;19;20029;-70
2022/06/27 12:11:16;;;;;;;8.20;6.10;;;20.90;77.40;;;;;;9178107;19;20019;-70
2022/06/27 12:14:11;;;;;;;6.43;5.03;;;20.90;77.50;;;;;;9177778;19;20029;-70
2022/06/27 12:17:16;;;;;;;12.00;7.00;;;20.90;77.40;;;;;;9172416;19;20035;-72
2022/06/27 12:20:21;;;;;;;7.05;6.05;;;20.90;77.30;;;;;;9176244;19;20042;-72
2022/06/27 12:23:26;;;;;;;7.55;5.50;;;20.90;77.40;;;;;;9175558;19;20018;-70
2022/06/27 12:26:34;;;;;;;11.90;6.57;;;20.90;77.40;;;;;;9173750;19;20377;-72
2022/06/27 12:29:39;;;;;;;7.80;5.55;;;20.90;77.40;;;;;;9173546;19;20007;-70
2022/06/27 12:32:50;;;;;;;9.80;7.15;;;20.80;77.40;;;;;;9175034;19;20077;-71
2022/06/27 12:35:55;;;;;;;7.20;5.47;;;20.90;77.00;;;;;;9177208;19;20498;-71
2022/06/27 12:39:00;;;;;;;9.80;6.93;;;20.90;77.40;;;;;;9175210;19;20107;-73
2022/06/27 12:42:09;;;;;;;8.82;6.45;;;20.90;77.40;;;;;;9173483;19;20022;-71
2022/06/27 12:45:15;;;;;;;10.98;7.28;;;20.90;77.50;;;;;;9171354;19;20027;-72
2022/06/27 12:48:20;;;;;;;10.27;7.82;;;20.90;77.60;;;;;;9172446;19;20018;-71
2022/06/27 12:51:27;;;;;;;13.15;9.70;;;20.90;77.60;;;;;;9177346;19;20044;-74
2022/06/27 12:54:32;;;;;;;11.82;8.70;;;20.90;77.60;;;;;;9171871;19;20605;-71
2022/06/27 12:57:40;;;;;;;12.45;8.88;;;20.90;77.60;;;;;;9173452;19;20029;-72
2022/06/27 13:00:45;;;;;;;10.60;9.02;;;20.90;77.60;;;;;;9173302;19;20014;-71
2022/06/27 13:03:50;;;;;;;10.70;7.85;;;20.90;77.60;;;;;;9172271;19;20054;-71
2022/06/27 13:06:55;;;;;;;10.20;8.00;;;20.90;77.60;;;;;;9175108;19;20101;-71
2022/06/27 13:10:03;;;;;;;11.68;8.45;;;20.90;77.60;;;;;;9170123;19;20086;-71
2022/06/27 13:13:11;;;;;;;10.52;8.38;;;20.90;77.60;;;;;;9174011;19;20090;-71
2022/06/27 13:16:16;;;;;;;11.68;8.45;;;20.90;77.70;;;;;;9171091;19;20015;-72
2022/06/27 13:19:21;;;;;;;13.15;7.88;;;20.90;77.70;;;;;;9176230;19;20494;-72
2022/06/27 13:22:26;;;;;;;14.57;7.90;;;20.90;77.70;;;;;;9175126;19;20025;-71
2022/06/27 13:25:32;;;;;;;10.93;7.75;;;20.90;77.70;;;;;;9174700;19;20014;-69
2022/06/27 13:28:39;;;;;;;9.43;7.85;;;20.90;77.60;;;;;;9174088;19;20026;-71
2022/06/27 13:31:44;;;;;;;11.45;9.07;;;20.90;78.20;;;;;;9172449;19;20026;-72
2022/06/27 13:34:49;;;;;;;13.82;9.55;;;20.90;77.50;;;;;;9174599;19;20022;-70
2022/06/27 13:38:03;;;;;;;12.55;9.07;;;20.90;77.50;;;;;;9174913;19;20018;-72
2022/06/27 13:41:08;;;;;;;12.07;8.30;;;20.90;77.40;;;;;;9171740;19;20368;-71
2022/06/27 13:44:16;;;;;;;11.93;8.32;;;20.90;77.40;;;;;;9172479;19;20497;-71
2022/06/27 13:47:21;;;;;;;11.30;7.97;;;20.90;77.40;;;;;;9172576;19;20388;-70
2022/06/27 13:50:26;;;;;;;13.25;8.20;;;20.90;77.30;;;;;;9172222;19;20014;-72
2022/06/27 13:53:32;;;;;;;10.77;8.52;;;20.90;77.20;;;;;;9171805;19;20014;-72
2022/06/27 13:56:37;;;;;;;9.95;7.88;;;20.90;77.30;;;;;;9173814;19;20771;-72
2022/06/27 13:59:44;;;;;;;11.68;7.57;;;20.90;77.30;;;;;;9173677;19;20018;-72
2022/06/27 14:02:49;;;;;;;8.98;6.88;;;20.90;77.30;;;;;;9171695;19;20011;-72
2022/06/27 14:07:35;;;;;;;9.68;6.68;;;21.00;77.30;;;;;;9172328;19;20018;-72
2022/06/27 14:09:20;;;;;;;7.97;4.95;;;21.00;77.10;;;;;;9169975;19;20033;-71
2022/06/27 14:12:25;;;;;;;8.70;5.75;;;21.00;76.90;;;;;;9172557;19;20022;-72
2022/06/27 14:15:32;;;;;;;8.10;4.63;;;21.10;76.80;;;;;;9172341;19;20018;-71
2022/06/27 14:18:37;;;;;;;10.13;5.25;;;21.10;76.70;;;;;;9164474;19;20033;-72
2022/06/27 14:21:42;;;;;;;10.35;5.60;;;21.20;76.50;;;;;;9169310;19;20018;-72
2022/06/27 14:24:48;;;;;;;6.35;4.43;;;21.20;76.50;;;;;;9167598;19;20034;-72
2022/06/27 14:27:53;;;;;;;11.07;5.82;;;21.20;76.30;;;;;;9167147;19;20360;-72
2022/06/27 14:31:00;;;;;;;12.50;6.00;;;21.30;76.30;;;;;;9171402;19;20023;-72
2022/06/27 14:34:05;;;;;;;8.23;5.10;;;21.40;76.00;;;;;;9169688;19;20022;-74
2022/06/27 14:37:10;;;;;;;8.93;5.20;;;21.50;75.90;;;;;;9167508;19;20019;-72
2022/06/27 14:40:15;;;;;;;8.15;5.70;;;21.60;75.70;;;;;;9170166;19;20102;-72
2022/06/27 14:43:21;;;;;;;11.45;7.70;;;21.60;76.30;;;;;;9167465;19;20479;-72
2022/06/27 14:46:28;;;;;;;15.57;6.65;;;21.80;75.40;;;;;;9169083;19;20022;-72
2022/06/27 14:49:33;;;;;;;8.27;5.82;;;21.80;75.20;;;;;;9169663;19;20018;-73
2022/06/27 14:52:38;;;;;;;13.80;5.70;;;21.90;75.20;;;;;;9169008;19;20356;-71
2022/06/27 14:55:44;;;;;;;8.95;5.50;;;22.00;75.10;;;;;;9168030;19;20018;-71
2022/06/27 14:58:49;;;;;;;11.70;5.68;;;22.10;74.80;;;;;;9172236;19;20767;-72
2022/06/27 15:01:57;;;;;;;9.30;5.70;;;22.20;74.60;;;;;;9169309;19;20022;-73
2022/06/27 15:05:02;;;;;;;12.48;5.65;;;22.30;74.20;;;;;;9167331;19;20015;-72
2022/06/27 15:08:07;;;;;;;8.55;6.88;;;22.40;73.90;;;;;;9175488;19;20093;-71
2022/06/27 15:14:29;;;;;;;7.10;5.60;;;22.50;73.50;;;;;;9177918;19;20014;-70
2022/06/27 15:17:37;;;;;;;8.45;5.40;;;22.50;73.30;;;;;;9174748;19;20018;-71
2022/06/27 15:20:42;;;;;;;11.75;6.00;;;22.50;73.10;;;;;;9175843;19;20017;-72
2022/06/27 15:23:47;;;;;;;10.50;6.30;;;22.50;73.00;;;;;;9176833;19;20479;-72
2022/06/27 15:26:52;;;;;;;10.75;6.45;;;22.50;72.80;;;;;;9177161;19;20018;-71
2022/06/27 15:29:57;;;;;;;10.68;6.65;;;22.50;72.70;;;;;;9176602;19;20023;-72
2022/06/27 15:33:05;;;;;;;9.38;6.03;;;22.40;72.50;;;;;;9175390;19;20768;-72
2022/06/27 15:36:11;;;;;;;7.07;5.55;;;22.40;72.40;;;;;;9177964;19;20019;-69
2022/06/27 15:39:17;;;;;;;10.15;5.35;;;22.30;72.40;;;;;;9186542;19;20014;-71
2022/06/27 15:42:22;;;;;;;14.13;5.68;;;22.30;72.50;;;;;;9184283;19;20014;-71
2022/06/27 15:45:28;;;;;;;16.38;6.40;;;22.20;72.60;;;;;;9188015;19;20021;-70
2022/06/27 15:48:35;;;;;;;12.35;6.20;;;22.20;72.80;;;;;;9184110;19;20372;-71
2022/06/27 15:51:40;;;;;;;17.77;4.93;;;22.10;72.90;;;;;;9185442;19;20010;-71
2022/06/27 15:54:45;;;;;;;19.10;6.00;;;22.00;73.00;;;;;;9185825;19;20035;-69
2022/06/27 15:57:50;;;;;;;10.60;4.00;;;21.90;73.20;;;;;;9187396;19;20018;-70
2022/06/27 16:00:56;;;;;;;6.15;3.03;;;21.70;73.30;;;;;;9182680;19;20014;-70
2022/06/27 16:04:03;;;;;;;5.60;2.88;;;21.50;73.30;;;;;;9185446;19;20014;-70
2022/06/27 16:07:08;;;;;;;2.83;1.98;;;21.30;73.40;;;;;;9185682;19;20022;-70
2022/06/27 16:10:13;;;;;;;6.28;2.33;;;21.10;73.60;;;;;;9185103;19;20019;-71
2022/06/27 16:13:20;;;;;;;10.43;2.95;;;20.90;73.80;;;;;;9185006;19;20356;-70
2022/06/27 16:16:25;;;;;;;9.73;3.42;;;20.70;73.90;;;;;;9182290;19;20410;-70
2022/06/27 16:19:33;;;;;;;5.05;2.60;;;20.50;74.10;;;;;;9184209;19;20090;-72
2022/06/27 16:22:58;;;;;;;4.28;2.63;;;20.30;74.20;;;;;;9179806;19;20015;-72